To NAV CANADA Home Page Login to a new session Search on AWWS site Feedback and Comments Disclaimer Vers la page française équivalente Tips FAQ What's new on the site To the Forecasts and Observations / NOTAM section To "File a Flight Plan" website Publications and other links Update of the User's profile FIC Telephone Numbers My Weather Data Folder Route Weather Data Regional Weather Data Local Weather Data To the Forecasts and Observations / NOTAM section
Request Generated 08/30/2015 at 19:52:45 UTC . Weather information available at that time is displayed.

METAR/TAF

REPULSE BAY/NU    

METAR CYUT 301900Z 20005KT 25SM SCT230 08/00 A3003 RMK CI3 SLP170=
SPECI CYUT 301830Z 21005KT 25SM FEW230 08/00 A3003 RMK CI2 SLP170=
SPECI CYUT 301806Z CCA 22004KT 170V240 25SM FU FEW230 07/00 A3003 RMK
CI2 FU NW HDNG NE SLP170=
SPECI CYUT 301806Z 22004KT 170V240 25SM FU FEW230 07/00 A3003 RMK CI2
FU N HDNG NE SLP170=
METAR CYUT 301800Z 21003KT 170V240 25SM FEW230 08/01 A3003 RMK CI2
SLP170=
METAR CYUT 301700Z 25003KT 210V280 25SM FEW230 07/01 A3003 RMK CI2
SLP171=

TAF CYUT 301538Z 3016/3020 VRB03KT P6SM SCT100 BKN230
RMK NXT FCST WILL BE ISSUED AT 311345Z=
Your time UTC time
Weather data provided by Environment Canada and NAV CANADA